sensor_id;sensor_type;location;lat;lon;timestamp;pressure;altitude;pressure_sealevel;temperature;humidity
74329;BME280;62749;51.982;5.916;2023-04-03T00:00:10;102798.63;;;4.94;64.55
74329;BME280;62749;51.982;5.916;2023-04-03T00:02:42;102802.09;;;4.93;63.97
74329;BME280;62749;51.982;5.916;2023-04-03T00:05:12;102811.78;;;4.97;64.00
74329;BME280;62749;51.982;5.916;2023-04-03T00:07:41;102818.72;;;4.96;63.45
74329;BME280;62749;51.982;5.916;2023-04-03T00:10:11;102820.53;;;5.00;64.12
74329;BME280;62749;51.982;5.916;2023-04-03T00:12:41;102821.50;;;5.07;63.90
74329;BME280;62749;51.982;5.916;2023-04-03T00:15:11;102817.19;;;5.11;63.46
74329;BME280;62749;51.982;5.916;2023-04-03T00:17:43;102812.75;;;5.05;63.60
74329;BME280;62749;51.982;5.916;2023-04-03T00:20:12;102820.53;;;5.00;63.65
74329;BME280;62749;51.982;5.916;2023-04-03T00:22:42;102822.25;;;4.97;63.95
74329;BME280;62749;51.982;5.916;2023-04-03T00:25:12;102815.38;;;5.06;64.19
74329;BME280;62749;51.982;5.916;2023-04-03T00:27:41;102822.22;;;4.95;64.09
74329;BME280;62749;51.982;5.916;2023-04-03T00:30:14;102819.41;;;4.81;64.11
74329;BME280;62749;51.982;5.916;2023-04-03T00:32:47;102820.41;;;4.91;64.61
74329;BME280;62749;51.982;5.916;2023-04-03T00:35:17;102832.56;;;4.87;64.46
74329;BME280;62749;51.982;5.916;2023-04-03T00:37:46;102814.19;;;4.84;64.99
74329;BME280;62749;51.982;5.916;2023-04-03T00:40:16;102824.59;;;4.78;64.56
74329;BME280;62749;51.982;5.916;2023-04-03T00:42:48;102828.00;;;4.74;65.60
74329;BME280;62749;51.982;5.916;2023-04-03T00:45:31;102822.03;;;4.81;65.21
74329;BME280;62749;51.982;5.916;2023-04-03T00:48:06;102830.81;;;4.86;65.36
74329;BME280;62749;51.982;5.916;2023-04-03T00:50:39;102832.31;;;4.69;66.30
74329;BME280;62749;51.982;5.916;2023-04-03T00:53:14;102832.88;;;4.49;66.32
74329;BME280;62749;51.982;5.916;2023-04-03T00:55:47;102831.09;;;4.48;66.24
74329;BME280;62749;51.982;5.916;2023-04-03T00:58:20;102833.84;;;4.54;66.23
74329;BME280;62749;51.982;5.916;2023-04-03T01:00:55;102838.25;;;4.58;66.30
74329;BME280;62749;51.982;5.916;2023-04-03T01:03:29;102836.47;;;4.54;67.08
74329;BME280;62749;51.982;5.916;2023-04-03T01:05:58;102838.16;;;4.52;66.70
74329;BME280;62749;51.982;5.916;2023-04-03T01:08:29;102846.09;;;4.58;66.37
74329;BME280;62749;51.982;5.916;2023-04-03T01:10:58;102838.09;;;4.49;67.11
74329;BME280;62749;51.982;5.916;2023-04-03T01:13:30;102847.63;;;4.44;67.06
74329;BME280;62749;51.982;5.916;2023-04-03T01:16:01;102843.28;;;4.46;67.42
74329;BME280;62749;51.982;5.916;2023-04-03T01:18:37;102841.38;;;4.36;67.31
74329;BME280;62749;51.982;5.916;2023-04-03T01:21:38;102839.63;;;4.35;67.74
74329;BME280;62749;51.982;5.916;2023-04-03T01:24:33;102843.72;;;4.20;68.32
74329;BME280;62749;51.982;5.916;2023-04-03T01:27:05;102849.06;;;4.25;68.36
74329;BME280;62749;51.982;5.916;2023-04-03T01:29:35;102841.22;;;4.26;68.57
74329;BME280;62749;51.982;5.916;2023-04-03T01:32:07;102853.31;;;4.18;68.63
74329;BME280;62749;51.982;5.916;2023-04-03T01:34:37;102850.72;;;4.21;69.04
74329;BME280;62749;51.982;5.916;2023-04-03T01:37:06;102848.94;;;4.17;68.93
74329;BME280;62749;51.982;5.916;2023-04-03T01:39:35;102850.78;;;4.24;69.10
74329;BME280;62749;51.982;5.916;2023-04-03T01:42:05;102857.78;;;4.24;68.99
74329;BME280;62749;51.982;5.916;2023-04-03T01:44:34;102857.84;;;4.28;68.73
74329;BME280;62749;51.982;5.916;2023-04-03T01:47:08;102861.97;;;4.15;69.40
74329;BME280;62749;51.982;5.916;2023-04-03T01:49:37;102855.19;;;4.27;69.41
74329;BME280;62749;51.982;5.916;2023-04-03T01:52:07;102854.38;;;4.31;69.67
74329;BME280;62749;51.982;5.916;2023-04-03T01:54:36;102863.09;;;4.30;69.66
74329;BME280;62749;51.982;5.916;2023-04-03T01:57:05;102863.78;;;4.20;69.67
74329;BME280;62749;51.982;5.916;2023-04-03T01:59:35;102863.56;;;4.06;70.10
74329;BME280;62749;51.982;5.916;2023-04-03T02:02:07;102861.94;;;4.12;70.19
74329;BME280;62749;51.982;5.916;2023-04-03T02:04:38;102871.28;;;3.99;70.61
74329;BME280;62749;51.982;5.916;2023-04-03T02:07:08;102866.25;;;4.12;70.70
74329;BME280;62749;51.982;5.916;2023-04-03T02:09:37;102853.25;;;4.17;70.12
74329;BME280;62749;51.982;5.916;2023-04-03T02:12:06;102863.44;;;4.01;70.61
74329;BME280;62749;51.982;5.916;2023-04-03T02:14:36;102865.19;;;3.99;71.15
74329;BME280;62749;51.982;5.916;2023-04-03T02:17:08;102863.97;;;3.81;71.73
74329;BME280;62749;51.982;5.916;2023-04-03T02:19:37;102864.19;;;3.94;71.70
74329;BME280;62749;51.982;5.916;2023-04-03T02:22:07;102869.44;;;3.94;70.97
74329;BME280;62749;51.982;5.916;2023-04-03T02:24:36;102871.28;;;3.99;71.64
74329;BME280;62749;51.982;5.916;2023-04-03T02:27:06;102873.94;;;4.03;71.38
74329;BME280;62749;51.982;5.916;2023-04-03T02:29:36;102875.44;;;3.90;71.33
74329;BME280;62749;51.982;5.916;2023-04-03T02:32:08;102868.41;;;3.86;71.94
74329;BME280;62749;51.982;5.916;2023-04-03T02:34:37;102872.03;;;3.92;71.45
74329;BME280;62749;51.982;5.916;2023-04-03T02:37:06;102873.63;;;3.86;72.02
74329;BME280;62749;51.982;5.916;2023-04-03T02:39:36;102866.66;;;3.86;71.87
74329;BME280;62749;51.982;5.916;2023-04-03T02:42:05;102859.66;;;3.85;72.27
74329;BME280;62749;51.982;5.916;2023-04-03T02:44:35;102879.94;;;3.97;71.60
74329;BME280;62749;51.982;5.916;2023-04-03T02:47:07;102867.56;;;3.88;72.05
74329;BME280;62749;51.982;5.916;2023-04-03T02:49:37;102874.56;;;3.89;71.73
74329;BME280;62749;51.982;5.916;2023-04-03T02:52:06;102876.88;;;3.74;72.32
74329;BME280;62749;51.982;5.916;2023-04-03T02:54:36;102868.19;;;3.75;72.20
74329;BME280;62749;51.982;5.916;2023-04-03T02:57:06;102833.97;;;3.62;72.44
74329;BME280;62749;51.982;5.916;2023-04-03T02:59:36;102873.59;;;3.84;72.54
74329;BME280;62749;51.982;5.916;2023-04-03T03:02:10;102870.97;;;3.82;72.47
74329;BME280;62749;51.982;5.916;2023-04-03T03:04:39;102872.47;;;3.71;72.18
74329;BME280;62749;51.982;5.916;2023-04-03T03:07:08;102882.97;;;3.73;72.29
74329;BME280;62749;51.982;5.916;2023-04-03T03:09:38;102885.41;;;3.65;72.77
74329;BME280;62749;51.982;5.916;2023-04-03T03:12:07;102881.72;;;3.55;72.95
74329;BME280;62749;51.982;5.916;2023-04-03T03:14:37;102888.63;;;3.51;73.19
74329;BME280;62749;51.982;5.916;2023-04-03T03:17:09;102894.78;;;3.55;73.25
74329;BME280;62749;51.982;5.916;2023-04-03T03:19:39;102886.84;;;3.49;73.17
74329;BME280;62749;51.982;5.916;2023-04-03T03:22:08;102897.19;;;3.44;73.44
74329;BME280;62749;51.982;5.916;2023-04-03T03:24:37;102888.44;;;3.42;73.14
74329;BME280;62749;51.982;5.916;2023-04-03T03:27:07;102889.84;;;3.26;73.83
74329;BME280;62749;51.982;5.916;2023-04-03T03:29:36;102886.44;;;3.30;73.68
74329;BME280;62749;51.982;5.916;2023-04-03T03:32:06;102894.44;;;3.38;73.75
74329;BME280;62749;51.982;5.916;2023-04-03T03:34:46;102905.63;;;3.32;73.41
74329;BME280;62749;51.982;5.916;2023-04-03T03:37:15;102910.09;;;3.36;73.70
74329;BME280;62749;51.982;5.916;2023-04-03T03:39:44;102903.00;;;3.31;73.73
74329;BME280;62749;51.982;5.916;2023-04-03T03:42:14;102896.94;;;3.33;73.87
74329;BME280;62749;51.982;5.916;2023-04-03T03:44:43;102905.56;;;3.29;73.55
74329;BME280;62749;51.982;5.916;2023-04-03T03:47:12;102912.72;;;3.36;73.53
74329;BME280;62749;51.982;5.916;2023-04-03T03:49:42;102908.03;;;3.21;73.87
74329;BME280;62749;51.982;5.916;2023-04-03T03:52:14;102907.28;;;3.27;73.40
74329;BME280;62749;51.982;5.916;2023-04-03T03:54:43;102910.50;;;3.17;73.83
74329;BME280;62749;51.982;5.916;2023-04-03T03:57:12;102913.75;;;3.06;74.08
74329;BME280;62749;51.982;5.916;2023-04-03T03:59:42;102908.47;;;3.03;74.20
74329;BME280;62749;51.982;5.916;2023-04-03T04:02:12;102913.94;;;3.13;73.77
74329;BME280;62749;51.982;5.916;2023-04-03T04:04:41;102918.19;;;3.09;73.71
74329;BME280;62749;51.982;5.916;2023-04-03T04:07:10;102919.09;;;3.11;73.97
74329;BME280;62749;51.982;5.916;2023-04-03T04:09:43;102907.69;;;3.06;73.83
74329;BME280;62749;51.982;5.916;2023-04-03T04:12:12;102910.97;;;2.99;74.58
74329;BME280;62749;51.982;5.916;2023-04-03T04:14:42;102917.22;;;3.05;73.92
74329;BME280;62749;51.982;5.916;2023-04-03T04:17:13;102918.03;;;3.03;73.95
74329;BME280;62749;51.982;5.916;2023-04-03T04:19:42;102917.94;;;2.98;74.16
74329;BME280;62749;51.982;5.916;2023-04-03T04:22:12;102917.97;;;3.00;73.96
74329;BME280;62749;51.982;5.916;2023-04-03T04:24:44;102929.31;;;3.00;73.98
74329;BME280;62749;51.982;5.916;2023-04-03T04:27:13;102924.13;;;3.03;74.30
74329;BME280;62749;51.982;5.916;2023-04-03T04:29:43;102927.47;;;2.96;74.37
74329;BME280;62749;51.982;5.916;2023-04-03T04:32:12;102926.44;;;2.91;75.02
74329;BME280;62749;51.982;5.916;2023-04-03T04:34:41;102926.22;;;2.80;74.93
74329;BME280;62749;51.982;5.916;2023-04-03T04:37:11;102928.75;;;2.79;74.82
74329;BME280;62749;51.982;5.916;2023-04-03T04:39:40;102924.16;;;2.68;75.31
74329;BME280;62749;51.982;5.916;2023-04-03T04:42:12;102926.97;;;2.76;75.15
74329;BME280;62749;51.982;5.916;2023-04-03T04:44:42;102926.03;;;2.72;74.79
74329;BME280;62749;51.982;5.916;2023-04-03T04:47:11;102923.69;;;2.83;74.46
74329;BME280;62749;51.982;5.916;2023-04-03T04:49:41;102931.03;;;2.65;74.63
74329;BME280;62749;51.982;5.916;2023-04-03T04:52:10;102936.44;;;2.71;74.65
74329;BME280;62749;51.982;5.916;2023-04-03T04:54:40;102934.72;;;2.73;74.38
74329;BME280;62749;51.982;5.916;2023-04-03T04:57:12;102939.28;;;2.82;73.96
74329;BME280;62749;51.982;5.916;2023-04-03T04:59:42;102938.16;;;2.72;73.98
74329;BME280;62749;51.982;5.916;2023-04-03T05:02:11;102947.00;;;2.75;73.93
74329;BME280;62749;51.982;5.916;2023-04-03T05:04:40;102953.91;;;2.75;73.78
74329;BME280;62749;51.982;5.916;2023-04-03T05:07:10;102952.69;;;2.60;73.68
74329;BME280;62749;51.982;5.916;2023-04-03T05:09:39;102949.03;;;2.54;73.69
74329;BME280;62749;51.982;5.916;2023-04-03T05:12:12;102950.88;;;2.58;74.35
74329;BME280;62749;51.982;5.916;2023-04-03T05:14:41;102956.41;;;2.70;73.81
74329;BME280;62749;51.982;5.916;2023-04-03T05:17:10;102960.09;;;2.79;73.06
74329;BME280;62749;51.982;5.916;2023-04-03T05:19:40;102957.88;;;2.59;73.21
74329;BME280;62749;51.982;5.916;2023-04-03T05:22:09;102954.81;;;2.42;73.14
74329;BME280;62749;51.982;5.916;2023-04-03T05:24:38;102951.28;;;2.40;74.34
74329;BME280;62749;51.982;5.916;2023-04-03T05:27:08;102957.44;;;2.42;73.80
74329;BME280;62749;51.982;5.916;2023-04-03T05:29:40;102958.63;;;2.55;72.93
74329;BME280;62749;51.982;5.916;2023-04-03T05:32:10;102962.88;;;2.51;73.04
74329;BME280;62749;51.982;5.916;2023-04-03T05:34:39;102962.59;;;2.40;72.65
74329;BME280;62749;51.982;5.916;2023-04-03T05:37:09;102967.69;;;2.36;73.60
74329;BME280;62749;51.982;5.916;2023-04-03T05:39:38;102968.00;;;2.47;72.65
74329;BME280;62749;51.982;5.916;2023-04-03T05:42:08;102979.47;;;2.53;73.04
74329;BME280;62749;51.982;5.916;2023-04-03T05:44:40;102974.88;;;2.44;72.97
74329;BME280;62749;51.982;5.916;2023-04-03T05:47:10;102976.84;;;2.52;73.10
74329;BME280;62749;51.982;5.916;2023-04-03T05:49:39;102976.47;;;2.39;72.67
74329;BME280;62749;51.982;5.916;2023-04-03T05:52:20;102981.16;;;2.51;72.67
74329;BME280;62749;51.982;5.916;2023-04-03T05:54:50;102984.81;;;2.58;72.49
74329;BME280;62749;51.982;5.916;2023-04-03T05:57:20;102982.91;;;2.52;72.52
74329;BME280;62749;51.982;5.916;2023-04-03T05:59:52;102981.84;;;2.44;73.11
74329;BME280;62749;51.982;5.916;2023-04-03T06:02:24;102981.19;;;2.53;72.72
74329;BME280;62749;51.982;5.916;2023-04-03T06:04:53;102984.44;;;2.44;72.75
74329;BME280;62749;51.982;5.916;2023-04-03T06:07:24;102998.66;;;2.55;72.93
74329;BME280;62749;51.982;5.916;2023-04-03T06:09:56;102987.41;;;2.56;72.50
74329;BME280;62749;51.982;5.916;2023-04-03T06:12:26;102998.09;;;2.67;72.51
74329;BME280;62749;51.982;5.916;2023-04-03T06:14:58;102994.88;;;2.78;72.20
74329;BME280;62749;51.982;5.916;2023-04-03T06:17:28;102996.63;;;2.79;71.40
74329;BME280;62749;51.982;5.916;2023-04-03T06:19:58;102995.66;;;2.73;71.71
74329;BME280;62749;51.982;5.916;2023-04-03T06:22:27;103003.88;;;2.55;72.00
74329;BME280;62749;51.982;5.916;2023-04-03T06:24:57;103013.53;;;2.59;72.06
74329;BME280;62749;51.982;5.916;2023-04-03T06:27:27;102997.97;;;2.63;71.48
74329;BME280;62749;51.982;5.916;2023-04-03T06:29:59;103008.81;;;2.78;71.11
74329;BME280;62749;51.982;5.916;2023-04-03T06:32:28;103006.34;;;2.84;71.29
74329;BME280;62749;51.982;5.916;2023-04-03T06:34:58;103011.97;;;3.00;70.33
74329;BME280;62749;51.982;5.916;2023-04-03T06:37:27;103017.56;;;3.14;69.67
74329;BME280;62749;51.982;5.916;2023-04-03T06:39:57;103012.13;;;3.06;69.88
74329;BME280;62749;51.982;5.916;2023-04-03T06:42:26;103013.84;;;3.05;69.74
74329;BME280;62749;51.982;5.916;2023-04-03T06:44:56;103017.59;;;3.17;69.01
74329;BME280;62749;51.982;5.916;2023-04-03T06:47:28;103015.13;;;3.21;68.89
74329;BME280;62749;51.982;5.916;2023-04-03T06:49:57;103014.50;;;3.32;68.79
74329;BME280;62749;51.982;5.916;2023-04-03T06:52:26;103020.69;;;3.35;68.31
74329;BME280;62749;51.982;5.916;2023-04-03T06:54:56;103015.47;;;3.35;67.97
74329;BME280;62749;51.982;5.916;2023-04-03T06:57:26;103024.97;;;3.33;67.86
74329;BME280;62749;51.982;5.916;2023-04-03T06:59:56;103027.16;;;3.15;68.32
74329;BME280;62749;51.982;5.916;2023-04-03T07:02:28;103032.75;;;3.30;67.67
74329;BME280;62749;51.982;5.916;2023-04-03T07:04:58;103021.88;;;3.48;67.67
74329;BME280;62749;51.982;5.916;2023-04-03T07:07:27;103027.97;;;3.49;66.82
74329;BME280;62749;51.982;5.916;2023-04-03T07:09:57;103031.72;;;3.60;67.04
74329;BME280;62749;51.982;5.916;2023-04-03T07:12:26;103035.06;;;3.55;66.74
74329;BME280;62749;51.982;5.916;2023-04-03T07:14:56;103036.94;;;3.60;66.69
74329;BME280;62749;51.982;5.916;2023-04-03T07:17:28;103038.03;;;3.33;66.73
74329;BME280;62749;51.982;5.916;2023-04-03T07:19:57;103049.81;;;3.51;66.45
74329;BME280;62749;51.982;5.916;2023-04-03T07:22:27;103055.16;;;3.57;65.84
74329;BME280;62749;51.982;5.916;2023-04-03T07:24:56;103049.13;;;3.60;66.33
74329;BME280;62749;51.982;5.916;2023-04-03T07:27:26;103056.16;;;3.62;65.68
74329;BME280;62749;51.982;5.916;2023-04-03T07:29:55;103058.06;;;3.69;64.85
74329;BME280;62749;51.982;5.916;2023-04-03T07:32:27;103062.22;;;3.61;65.80
74329;BME280;62749;51.982;5.916;2023-04-03T07:34:57;103065.28;;;3.80;64.93
74329;BME280;62749;51.982;5.916;2023-04-03T07:37:40;103073.44;;;3.94;63.78
74329;BME280;62749;51.982;5.916;2023-04-03T07:40:10;103069.31;;;4.05;63.75
74329;BME280;62749;51.982;5.916;2023-04-03T07:42:40;103077.19;;;4.07;63.44
74329;BME280;62749;51.982;5.916;2023-04-03T07:45:10;103071.16;;;4.11;62.60
74329;BME280;62749;51.982;5.916;2023-04-03T07:47:42;103070.75;;;4.34;62.72
74329;BME280;62749;51.982;5.916;2023-04-03T07:50:11;103069.63;;;4.64;62.60
74329;BME280;62749;51.982;5.916;2023-04-03T07:52:42;103071.38;;;4.63;60.19
74329;BME280;62749;51.982;5.916;2023-04-03T07:55:12;103067.69;;;4.55;59.91
74329;BME280;62749;51.982;5.916;2023-04-03T07:57:41;103065.75;;;4.43;59.82
74329;BME280;62749;51.982;5.916;2023-04-03T08:00:12;103067.75;;;4.58;59.89
74329;BME280;62749;51.982;5.916;2023-04-03T08:02:46;103060.50;;;4.89;59.39
74329;BME280;62749;51.982;5.916;2023-04-03T08:05:18;103070.34;;;5.02;58.88
74329;BME280;62749;51.982;5.916;2023-04-03T08:07:48;103060.50;;;4.89;57.39
74329;BME280;62749;51.982;5.916;2023-04-03T08:10:17;103067.81;;;5.09;58.08
74329;BME280;62749;51.982;5.916;2023-04-03T08:12:47;103071.22;;;5.03;56.37
74329;BME280;62749;51.982;5.916;2023-04-03T08:15:17;103069.56;;;5.08;55.86
74329;BME280;62749;51.982;5.916;2023-04-03T08:17:50;103078.63;;;5.29;55.73
74329;BME280;62749;51.982;5.916;2023-04-03T08:20:19;103073.59;;;5.43;54.53
74329;BME280;62749;51.982;5.916;2023-04-03T08:22:49;103074.44;;;5.40;53.32
74329;BME280;62749;51.982;5.916;2023-04-03T08:25:18;103065.59;;;5.32;54.21
74329;BME280;62749;51.982;5.916;2023-04-03T08:27:47;103076.59;;;5.64;53.08
74329;BME280;62749;51.982;5.916;2023-04-03T08:30:17;103091.84;;;5.92;53.07
74329;BME280;62749;51.982;5.916;2023-04-03T08:32:49;103079.69;;;5.97;51.48
74329;BME280;62749;51.982;5.916;2023-04-03T08:35:18;103075.44;;;6.07;51.57
74329;BME280;62749;51.982;5.916;2023-04-03T08:37:48;103081.34;;;5.92;50.26
74329;BME280;62749;51.982;5.916;2023-04-03T08:40:18;103086.72;;;5.99;49.76
74329;BME280;62749;51.982;5.916;2023-04-03T08:42:58;103085.19;;;6.16;51.38
74329;BME280;62749;51.982;5.916;2023-04-03T08:45:42;103087.78;;;6.12;49.12
74329;BME280;62749;51.982;5.916;2023-04-03T08:48:20;103095.97;;;6.37;48.26
74329;BME280;62749;51.982;5.916;2023-04-03T08:50:55;103084.44;;;6.24;46.25
74329;BME280;62749;51.982;5.916;2023-04-03T08:53:29;103095.13;;;6.41;46.47
74329;BME280;62749;51.982;5.916;2023-04-03T08:56:05;103083.63;;;6.30;43.26
74329;BME280;62749;51.982;5.916;2023-04-03T08:58:42;103096.28;;;6.62;44.43
74329;BME280;62749;51.982;5.916;2023-04-03T09:01:19;103090.94;;;6.56;43.81
74329;BME280;62749;51.982;5.916;2023-04-03T09:03:52;103089.53;;;6.86;43.23
74329;BME280;62749;51.982;5.916;2023-04-03T09:06:26;103071.25;;;7.00;41.73
74329;BME280;62749;51.982;5.916;2023-04-03T09:09:10;103087.00;;;6.98;41.33
74329;BME280;62749;51.982;5.916;2023-04-03T09:11:50;103090.59;;;7.06;40.24
74329;BME280;62749;51.982;5.916;2023-04-03T09:14:28;103083.56;;;7.05;40.25
74329;BME280;62749;51.982;5.916;2023-04-03T09:17:10;103087.09;;;7.07;40.01
74329;BME280;62749;51.982;5.916;2023-04-03T09:19:55;103075.00;;;7.27;38.98
74329;BME280;62749;51.982;5.916;2023-04-03T09:22:32;103091.63;;;7.22;37.73
74329;BME280;62749;51.982;5.916;2023-04-03T09:25:12;103096.72;;;7.05;35.47
74329;BME280;62749;51.982;5.916;2023-04-03T09:27:43;103091.38;;;6.98;36.20
74329;BME280;62749;51.982;5.916;2023-04-03T09:30:14;103094.19;;;7.15;34.37
74329;BME280;62749;51.982;5.916;2023-04-03T09:32:45;103080.00;;;6.97;35.71
74329;BME280;62749;51.982;5.916;2023-04-03T09:35:25;103079.34;;;7.21;37.19
74329;BME280;62749;51.982;5.916;2023-04-03T09:37:59;103078.72;;;7.52;36.02
74329;BME280;62749;51.982;5.916;2023-04-03T09:40:34;103084.81;;;7.48;35.14
74329;BME280;62749;51.982;5.916;2023-04-03T09:43:27;103081.41;;;7.63;35.56
74329;BME280;62749;51.982;5.916;2023-04-03T09:46:16;103083.16;;;7.64;33.93
74329;BME280;62749;51.982;5.916;2023-04-03T09:48:56;103071.03;;;7.86;33.61
74329;BME280;62749;51.982;5.916;2023-04-03T09:51:30;103087.72;;;7.93;32.75
74329;BME280;62749;51.982;5.916;2023-04-03T09:53:59;103069.28;;;7.83;32.94
74329;BME280;62749;51.982;5.916;2023-04-03T09:56:30;103076.28;;;7.88;33.30
74329;BME280;62749;51.982;5.916;2023-04-03T09:59:13;103062.31;;;7.96;34.11
74329;BME280;62749;51.982;5.916;2023-04-03T10:01:57;103071.97;;;8.01;33.33
74329;BME280;62749;51.982;5.916;2023-04-03T10:04:37;103065.84;;;7.97;33.32
74329;BME280;62749;51.982;5.916;2023-04-03T10:07:29;103065.75;;;7.85;33.38
74329;BME280;62749;51.982;5.916;2023-04-03T10:10:02;103072.81;;;7.90;33.14
74329;BME280;62749;51.982;5.916;2023-04-03T10:12:33;103068.47;;;8.03;33.47
74329;BME280;62749;51.982;5.916;2023-04-03T10:15:10;103061.56;;;8.25;34.23
74329;BME280;62749;51.982;5.916;2023-04-03T10:17:53;103059.94;;;8.62;33.66
74329;BME280;62749;51.982;5.916;2023-04-03T10:20:34;103058.06;;;8.28;35.09
74329;BME280;62749;51.982;5.916;2023-04-03T10:23:18;103042.31;;;8.37;33.73
74329;BME280;62749;51.982;5.916;2023-04-03T10:26:01;103056.38;;;8.47;34.60
74329;BME280;62749;51.982;5.916;2023-04-03T10:28:45;103048.53;;;8.52;35.29
74329;BME280;62749;51.982;5.916;2023-04-03T10:31:24;103042.44;;;8.82;35.72
74329;BME280;62749;51.982;5.916;2023-04-03T10:37:01;103041.50;;;8.48;32.50
74329;BME280;62749;51.982;5.916;2023-04-03T10:39:46;103037.13;;;8.59;33.15
74329;BME280;62749;51.982;5.916;2023-04-03T10:42:27;103029.94;;;8.16;34.39
74329;BME280;62749;51.982;5.916;2023-04-03T10:45:19;103035.38;;;8.56;35.36
74329;BME280;62749;51.982;5.916;2023-04-03T10:48:01;103023.94;;;8.60;35.62
74329;BME280;62749;51.982;5.916;2023-04-03T10:50:42;103023.09;;;8.94;34.33
74329;BME280;62749;51.982;5.916;2023-04-03T10:53:23;103007.31;;;9.03;35.73
74329;BME280;62749;51.982;5.916;2023-04-03T10:56:03;103001.13;;;9.15;34.45
74329;BME280;62749;51.982;5.916;2023-04-03T10:58:43;102994.09;;;9.20;34.85
74329;BME280;62749;51.982;5.916;2023-04-03T11:01:18;103005.53;;;9.07;34.12
74329;BME280;62749;51.982;5.916;2023-04-03T11:03:53;102990.59;;;9.15;34.15
74329;BME280;62749;51.982;5.916;2023-04-03T11:06:30;102995.84;;;9.00;33.57
74329;BME280;62749;51.982;5.916;2023-04-03T11:09:10;102988.81;;;9.19;33.28
74329;BME280;62749;51.982;5.916;2023-04-03T11:11:44;102982.69;;;9.18;34.62
74329;BME280;62749;51.982;5.916;2023-04-03T11:14:22;102991.44;;;9.33;34.77
74329;BME280;62749;51.982;5.916;2023-04-03T11:17:05;102977.38;;;9.42;33.52
74329;BME280;62749;51.982;5.916;2023-04-03T11:19:44;102986.13;;;9.61;32.19
74329;BME280;62749;51.982;5.916;2023-04-03T11:22:23;102987.84;;;9.62;32.73
74329;BME280;62749;51.982;5.916;2023-04-03T11:25:02;102989.53;;;9.92;33.28
74329;BME280;62749;51.982;5.916;2023-04-03T11:27:41;102985.03;;;10.08;31.99
74329;BME280;62749;51.982;5.916;2023-04-03T11:30:19;102985.03;;;10.11;30.12
74329;BME280;62749;51.982;5.916;2023-04-03T11:36:05;102973.72;;;9.85;31.64
74329;BME280;62749;51.982;5.916;2023-04-03T11:38:41;102976.34;;;9.78;33.04
74329;BME280;62749;51.982;5.916;2023-04-03T11:41:13;102987.84;;;9.71;32.15
74329;BME280;62749;51.982;5.916;2023-04-03T11:43:56;102967.56;;;9.82;33.26
74329;BME280;62749;51.982;5.916;2023-04-03T11:46:51;102972.63;;;10.23;32.69
74329;BME280;62749;51.982;5.916;2023-04-03T11:49:58;102976.06;;;10.45;33.02
74329;BME280;62749;51.982;5.916;2023-04-03T11:52:59;102955.91;;;10.22;31.89
74329;BME280;62749;51.982;5.916;2023-04-03T11:55:44;102959.28;;;10.49;32.45
74329;BME280;62749;51.982;5.916;2023-04-03T11:58:17;102969.22;;;10.02;31.38
74329;BME280;62749;51.982;5.916;2023-04-03T12:00:51;102960.53;;;9.78;32.77
74329;BME280;62749;51.982;5.916;2023-04-03T12:07:02;102955.78;;;10.49;33.14
74329;BME280;62749;51.982;5.916;2023-04-03T12:12:37;102948.84;;;10.27;31.88
74329;BME280;62749;51.982;5.916;2023-04-03T12:15:41;102929.56;;;10.11;32.08
74329;BME280;62749;51.982;5.916;2023-04-03T12:22:05;102938.94;;;10.62;33.88
74329;BME280;62749;51.982;5.916;2023-04-03T12:24:35;102927.28;;;10.85;34.06
74329;BME280;62749;51.982;5.916;2023-04-03T12:27:22;102933.31;;;10.98;33.92
74329;BME280;62749;51.982;5.916;2023-04-03T12:30:01;102942.88;;;11.14;33.24
74329;BME280;62749;51.982;5.916;2023-04-03T12:35:37;102940.59;;;10.76;32.35
74329;BME280;62749;51.982;5.916;2023-04-03T12:38:38;102944.31;;;10.48;32.26
74329;BME280;62749;51.982;5.916;2023-04-03T12:41:21;102930.97;;;10.67;33.31
74329;BME280;62749;51.982;5.916;2023-04-03T12:44:10;102922.00;;;10.82;32.03
74329;BME280;62749;51.982;5.916;2023-04-03T12:46:48;102926.19;;;11.04;32.22
74329;BME280;62749;51.982;5.916;2023-04-03T12:49:35;102928.88;;;11.03;32.37
74329;BME280;62749;51.982;5.916;2023-04-03T12:52:19;102920.22;;;10.87;31.81
74329;BME280;62749;51.982;5.916;2023-04-03T12:54:53;102912.34;;;10.79;32.92
74329;BME280;62749;51.982;5.916;2023-04-03T12:57:25;102908.69;;;10.96;32.90
74329;BME280;62749;51.982;5.916;2023-04-03T12:59:55;102912.03;;;11.12;31.89
74329;BME280;62749;51.982;5.916;2023-04-03T13:02:26;102901.72;;;10.84;31.62
74329;BME280;62749;51.982;5.916;2023-04-03T13:04:59;102915.09;;;10.68;31.41
74329;BME280;62749;51.982;5.916;2023-04-03T13:07:36;102910.72;;;10.64;32.20
74329;BME280;62749;51.982;5.916;2023-04-03T13:10:18;102877.63;;;11.15;32.95
74329;BME280;62749;51.982;5.916;2023-04-03T13:12:50;102902.38;;;11.08;31.10
74329;BME280;62749;51.982;5.916;2023-04-03T13:15:23;102899.06;;;10.87;32.38
74329;BME280;62749;51.982;5.916;2023-04-03T13:17:54;102899.50;;;11.29;31.23
74329;BME280;62749;51.982;5.916;2023-04-03T13:20:26;102898.97;;;11.73;29.56
74329;BME280;62749;51.982;5.916;2023-04-03T13:23:01;102894.75;;;11.58;30.08
74329;BME280;62749;51.982;5.916;2023-04-03T13:25:36;102886.34;;;11.92;30.70
74329;BME280;62749;51.982;5.916;2023-04-03T13:28:13;102878.09;;;11.48;30.31
74329;BME280;62749;51.982;5.916;2023-04-03T13:31:03;102881.50;;;11.59;30.43
74329;BME280;62749;51.982;5.916;2023-04-03T13:33:37;102869.72;;;11.12;31.79
74329;BME280;62749;51.982;5.916;2023-04-03T13:36:17;102882.03;;;11.14;32.11
74329;BME280;62749;51.982;5.916;2023-04-03T13:38:58;102883.22;;;10.84;31.75
74329;BME280;62749;51.982;5.916;2023-04-03T13:41:33;102863.56;;;11.10;32.38
74329;BME280;62749;51.982;5.916;2023-04-03T13:44:28;102880.06;;;12.01;31.78
74329;BME280;62749;51.982;5.916;2023-04-03T13:47:01;102866.06;;;12.49;30.53
74329;BME280;62749;51.982;5.916;2023-04-03T13:49:44;102879.38;;;12.96;28.83
74329;BME280;62749;51.982;5.916;2023-04-03T13:52:27;102860.16;;;14.11;28.68